Terminal Aerodrome Forecast
Issued by NWS Quad Cities IA IL

Home | Current Version | Previous Version | Text Only | Print | Product List | Glossary Off
Versions: 1 2 3 4 5 6 7 8 9 10 11 12 13 14 15 16 17 18

724
FTUS43 KDVN 201330 AAA
TAFMLI
TAF AMD
KMLI 201330Z 2014/2112 10015KT 3SM BR OVC009
     FM201430 06012G20KT P6SM SCT006 OVC010
     FM201800 07008KT P6SM BKN018
     FM210300 07006KT 5SM -SHRA BR OVC015=

USA.gov is the U.S. government's official web portal to all federal, state and local government web resources and services.